IBE14N LBSF-LMML
Flight info
| Callsign | IBE14N |
|---|---|
| Flight time | 1h 38m |
| Altitude | 36000 |
| Route | NAPET T214 SIN DCT BITLA/N0448F370 UN731 KAS/N0454F360 DCT KRK UM600 DINOB/N0454F370 DCT AMREX DCT SODMO DCT PESAR DCT ABAKO DCT ERNAM DCT LORED/N0465F300 P624 GZO |
| Aircraft | A320/M-SDE3FGHIRWY/LB1 |
Departure
| Time | 2026-05-07 09:10 |
|---|---|
| Airport | Sofia Airport (LBSF) |
Arrival
| Time | 2026-05-07 10:49 |
|---|---|
| Airport | Malta International Airport (LMML) |
| Time | Latitude | Longitude | Altitude | Speed | Heading |
|---|---|---|---|---|---|
| 2026-05-07 09:00 | 42.69071 | 23.41142 | 1747 ft | 0 kts | 160° |
| 2026-05-07 09:06 | 42.69065 | 23.41170 | 1747 ft | 14 kts | 84° |
| 2026-05-07 09:06 | 42.69151 | 23.41190 | 1741 ft | 25 kts | 328° |
| 2026-05-07 09:06 | 42.69343 | 23.41182 | 1750 ft | 29 kts | 12° |
| 2026-05-07 09:07 | 42.69483 | 23.41319 | 1747 ft | 25 kts | 93° |
| 2026-05-07 09:07 | 42.69469 | 23.41554 | 1750 ft | 26 kts | 95° |
| 2026-05-07 09:07 | 42.69454 | 23.41817 | 1751 ft | 28 kts | 94° |
| 2026-05-07 09:07 | 42.69443 | 23.42089 | 1749 ft | 29 kts | 92° |
| 2026-05-07 09:08 | 42.69427 | 23.42366 | 1752 ft | 30 kts | 97° |
| 2026-05-07 09:08 | 42.69402 | 23.42649 | 1747 ft | 31 kts | 96° |
| 2026-05-07 09:08 | 42.69386 | 23.42940 | 1752 ft | 31 kts | 93° |
| 2026-05-07 09:08 | 42.69378 | 23.43233 | 1748 ft | 32 kts | 96° |
| 2026-05-07 09:09 | 42.69353 | 23.43532 | 1753 ft | 32 kts | 93° |
| 2026-05-07 09:09 | 42.69336 | 23.43836 | 1748 ft | 32 kts | 95° |
| 2026-05-07 09:09 | 42.69461 | 23.43959 | 1750 ft | 24 kts | 355° |
| 2026-05-07 09:09 | 42.69522 | 23.43805 | 1751 ft | 21 kts | 274° |
| 2026-05-07 09:10 | 42.69552 | 23.43377 | 1745 ft | 79 kts | 274° |
| 2026-05-07 09:10 | 42.69610 | 23.42349 | 1745 ft | 137 kts | 275° |
| 2026-05-07 09:10 | 42.69714 | 23.40879 | 1919 ft | 167 kts | 277° |
| 2026-05-07 09:10 | 42.69845 | 23.39267 | 2482 ft | 174 kts | 282° |
| 2026-05-07 09:11 | 42.70447 | 23.37848 | 3083 ft | 179 kts | 314° |
| 2026-05-07 09:11 | 42.71290 | 23.36527 | 3523 ft | 192 kts | 307° |
| 2026-05-07 09:11 | 42.72143 | 23.35036 | 3890 ft | 207 kts | 306° |
| 2026-05-07 09:11 | 42.73049 | 23.33404 | 4294 ft | 225 kts | 305° |
| 2026-05-07 09:12 | 42.74023 | 23.31631 | 4790 ft | 243 kts | 304° |
| 2026-05-07 09:12 | 42.75068 | 23.29720 | 5348 ft | 260 kts | 304° |
| 2026-05-07 09:12 | 42.76108 | 23.27630 | 6021 ft | 271 kts | 293° |
| 2026-05-07 09:12 | 42.76663 | 23.25193 | 6894 ft | 271 kts | 274° |
| 2026-05-07 09:13 | 42.76742 | 23.22624 | 7757 ft | 274 kts | 269° |
| 2026-05-07 09:13 | 42.76776 | 23.20010 | 8589 ft | 278 kts | 268° |
| 2026-05-07 09:13 | 42.76809 | 23.17363 | 9440 ft | 282 kts | 269° |
| 2026-05-07 09:13 | 42.76837 | 23.14672 | 10250 ft | 286 kts | 266° |
| 2026-05-07 09:14 | 42.76422 | 23.12060 | 11027 ft | 283 kts | 242° |
| 2026-05-07 09:14 | 42.75214 | 23.09979 | 11784 ft | 283 kts | 217° |
| 2026-05-07 09:14 | 42.73438 | 23.08844 | 12529 ft | 287 kts | 193° |
| 2026-05-07 09:14 | 42.71416 | 23.08393 | 12981 ft | 303 kts | 189° |
| 2026-05-07 09:15 | 42.69271 | 23.07993 | 13354 ft | 320 kts | 188° |
| 2026-05-07 09:15 | 42.67010 | 23.07592 | 13708 ft | 336 kts | 188° |
| 2026-05-07 09:15 | 42.64631 | 23.07175 | 14033 ft | 352 kts | 188° |
| 2026-05-07 09:15 | 42.62167 | 23.06737 | 14496 ft | 361 kts | 189° |
| 2026-05-07 09:16 | 42.59668 | 23.06283 | 15082 ft | 365 kts | 189° |
| 2026-05-07 09:16 | 42.57169 | 23.05825 | 15678 ft | 369 kts | 189° |
| 2026-05-07 09:16 | 42.54612 | 23.05353 | 16259 ft | 373 kts | 189° |
| 2026-05-07 09:16 | 42.52024 | 23.04872 | 16874 ft | 377 kts | 189° |
| 2026-05-07 09:17 | 42.49411 | 23.04384 | 17479 ft | 381 kts | 190° |
| 2026-05-07 09:17 | 42.46768 | 23.03886 | 18068 ft | 385 kts | 190° |
| 2026-05-07 09:17 | 42.44103 | 23.03383 | 18622 ft | 389 kts | 190° |
| 2026-05-07 09:17 | 42.41412 | 23.02878 | 19153 ft | 392 kts | 190° |
| 2026-05-07 09:18 | 42.38697 | 23.02375 | 19685 ft | 395 kts | 190° |
| 2026-05-07 09:18 | 42.35962 | 23.01872 | 20233 ft | 398 kts | 190° |
| 2026-05-07 09:18 | 42.33235 | 23.01197 | 20774 ft | 399 kts | 198° |
| 2026-05-07 09:18 | 42.30657 | 22.99837 | 21300 ft | 399 kts | 209° |
| 2026-05-07 09:19 | 42.28332 | 22.97798 | 21800 ft | 399 kts | 220° |
| 2026-05-07 09:19 | 42.26361 | 22.95166 | 22284 ft | 401 kts | 232° |
| 2026-05-07 09:19 | 42.24773 | 22.92064 | 22753 ft | 403 kts | 238° |
| 2026-05-07 09:19 | 42.23255 | 22.88857 | 23213 ft | 407 kts | 237° |
| 2026-05-07 09:20 | 42.21723 | 22.85637 | 23652 ft | 410 kts | 237° |
| 2026-05-07 09:20 | 42.20171 | 22.82393 | 24031 ft | 413 kts | 237° |
| 2026-05-07 09:20 | 42.18608 | 22.79134 | 24407 ft | 415 kts | 237° |
| 2026-05-07 09:20 | 42.17039 | 22.75871 | 24797 ft | 416 kts | 237° |
| 2026-05-07 09:21 | 42.15462 | 22.72586 | 25197 ft | 418 kts | 237° |
| 2026-05-07 09:21 | 42.13884 | 22.69299 | 25586 ft | 419 kts | 237° |
| 2026-05-07 09:21 | 42.12296 | 22.65993 | 25970 ft | 420 kts | 237° |
| 2026-05-07 09:21 | 42.10704 | 22.62686 | 26340 ft | 421 kts | 237° |
| 2026-05-07 09:22 | 42.09110 | 22.59378 | 26701 ft | 423 kts | 237° |
| 2026-05-07 09:22 | 42.07505 | 22.56043 | 27065 ft | 424 kts | 237° |
| 2026-05-07 09:22 | 42.05900 | 22.52712 | 27426 ft | 425 kts | 237° |
| 2026-05-07 09:22 | 42.04287 | 22.49375 | 27763 ft | 426 kts | 237° |
| 2026-05-07 09:23 | 42.02665 | 22.46028 | 28083 ft | 427 kts | 237° |
| 2026-05-07 09:23 | 42.01042 | 22.42681 | 28407 ft | 429 kts | 237° |
| 2026-05-07 09:23 | 41.99383 | 22.39347 | 28706 ft | 430 kts | 233° |
| 2026-05-07 09:23 | 41.97423 | 22.36336 | 28991 ft | 431 kts | 224° |
| 2026-05-07 09:24 | 41.95090 | 22.33747 | 29287 ft | 433 kts | 216° |
| 2026-05-07 09:24 | 41.92635 | 22.31470 | 29551 ft | 435 kts | 216° |
| 2026-05-07 09:24 | 41.90143 | 22.29165 | 29886 ft | 434 kts | 216° |
| 2026-05-07 09:24 | 41.87662 | 22.26875 | 30268 ft | 432 kts | 216° |
| 2026-05-07 09:25 | 41.85193 | 22.24595 | 30598 ft | 430 kts | 216° |
| 2026-05-07 09:25 | 41.82730 | 22.22318 | 30908 ft | 429 kts | 216° |
| 2026-05-07 09:25 | 41.80284 | 22.20053 | 31225 ft | 427 kts | 216° |
| 2026-05-07 09:25 | 41.77838 | 22.17787 | 31539 ft | 426 kts | 216° |
| 2026-05-07 09:26 | 41.75411 | 22.15542 | 31859 ft | 424 kts | 216° |
| 2026-05-07 09:26 | 41.72979 | 22.13298 | 32189 ft | 423 kts | 216° |
| 2026-05-07 09:26 | 41.70555 | 22.11065 | 32503 ft | 422 kts | 216° |
| 2026-05-07 09:26 | 41.68144 | 22.08848 | 32820 ft | 420 kts | 216° |
| 2026-05-07 09:27 | 41.65741 | 22.06639 | 33136 ft | 419 kts | 216° |
| 2026-05-07 09:27 | 41.63338 | 22.04428 | 33452 ft | 418 kts | 216° |
| 2026-05-07 09:27 | 41.58560 | 22.00038 | 34098 ft | 415 kts | 216° |
| 2026-05-07 09:28 | 41.56183 | 21.97858 | 34387 ft | 414 kts | 216° |
| 2026-05-07 09:28 | 41.53810 | 21.95686 | 34654 ft | 413 kts | 216° |
| 2026-05-07 09:28 | 41.51438 | 21.93519 | 34893 ft | 413 kts | 216° |
| 2026-05-07 09:28 | 41.49079 | 21.91361 | 35134 ft | 412 kts | 216° |
| 2026-05-07 09:29 | 41.46704 | 21.89190 | 35357 ft | 412 kts | 217° |
| 2026-05-07 09:29 | 41.44343 | 21.87035 | 35584 ft | 412 kts | 217° |
| 2026-05-07 09:29 | 41.41981 | 21.84881 | 35803 ft | 411 kts | 217° |
| 2026-05-07 09:29 | 41.39620 | 21.82732 | 35997 ft | 411 kts | 217° |
| 2026-05-07 09:30 | 41.37256 | 21.80583 | 36144 ft | 412 kts | 217° |
| 2026-05-07 09:30 | 41.32542 | 21.76304 | 36169 ft | 413 kts | 217° |
| 2026-05-07 09:31 | 41.27795 | 21.72004 | 36177 ft | 413 kts | 216° |
| 2026-05-07 09:31 | 41.23049 | 21.67711 | 36176 ft | 412 kts | 216° |
| 2026-05-07 09:32 | 41.18305 | 21.63424 | 36181 ft | 413 kts | 216° |
| 2026-05-07 09:32 | 41.13552 | 21.59132 | 36190 ft | 414 kts | 216° |
| 2026-05-07 09:33 | 41.08786 | 21.54840 | 36208 ft | 414 kts | 216° |
| 2026-05-07 09:33 | 41.04014 | 21.50548 | 36194 ft | 414 kts | 216° |
| 2026-05-07 09:34 | 40.99242 | 21.46268 | 36197 ft | 415 kts | 216° |
| 2026-05-07 09:34 | 40.94454 | 21.41985 | 36211 ft | 415 kts | 216° |
| 2026-05-07 09:35 | 40.89675 | 21.37781 | 36202 ft | 416 kts | 211° |
| 2026-05-07 09:35 | 40.84217 | 21.35154 | 36198 ft | 423 kts | 193° |
| 2026-05-07 09:36 | 40.78363 | 21.34007 | 36200 ft | 425 kts | 192° |
| 2026-05-07 09:36 | 40.72507 | 21.32864 | 36199 ft | 425 kts | 192° |
| 2026-05-07 09:37 | 40.66646 | 21.31728 | 36207 ft | 426 kts | 192° |
| 2026-05-07 09:37 | 40.60783 | 21.30585 | 36203 ft | 426 kts | 192° |
| 2026-05-07 09:38 | 40.54905 | 21.29443 | 36206 ft | 427 kts | 192° |
| 2026-05-07 09:38 | 40.49038 | 21.28231 | 36202 ft | 425 kts | 197° |
| 2026-05-07 09:39 | 40.43653 | 21.25280 | 36199 ft | 418 kts | 216° |
| 2026-05-07 09:39 | 40.39232 | 21.20371 | 36194 ft | 417 kts | 224° |
| 2026-05-07 09:40 | 40.34979 | 21.15188 | 36200 ft | 417 kts | 224° |
| 2026-05-07 09:40 | 40.30740 | 21.10059 | 36206 ft | 418 kts | 224° |
| 2026-05-07 09:41 | 40.26465 | 21.04898 | 36206 ft | 418 kts | 224° |
| 2026-05-07 09:41 | 40.22178 | 20.99731 | 36205 ft | 419 kts | 224° |
| 2026-05-07 09:42 | 40.17882 | 20.94547 | 36198 ft | 421 kts | 224° |
| 2026-05-07 09:42 | 40.13582 | 20.89357 | 36198 ft | 421 kts | 224° |
| 2026-05-07 09:43 | 40.09270 | 20.84173 | 36190 ft | 422 kts | 224° |
| 2026-05-07 09:43 | 40.04946 | 20.78987 | 36188 ft | 422 kts | 224° |
| 2026-05-07 09:44 | 40.00642 | 20.73830 | 36175 ft | 423 kts | 224° |
| 2026-05-07 09:44 | 39.96278 | 20.68613 | 36182 ft | 423 kts | 224° |
| 2026-05-07 09:45 | 39.91943 | 20.63428 | 36176 ft | 423 kts | 224° |
| 2026-05-07 09:45 | 39.87606 | 20.58263 | 36174 ft | 423 kts | 224° |
| 2026-05-07 09:46 | 39.83267 | 20.53113 | 36166 ft | 422 kts | 225° |
| 2026-05-07 09:46 | 39.78927 | 20.47965 | 36165 ft | 422 kts | 225° |
| 2026-05-07 09:47 | 39.74614 | 20.42856 | 36157 ft | 422 kts | 225° |
| 2026-05-07 09:47 | 39.70282 | 20.37731 | 36147 ft | 421 kts | 225° |
| 2026-05-07 09:48 | 39.65946 | 20.32614 | 36142 ft | 421 kts | 225° |
| 2026-05-07 09:48 | 39.61612 | 20.27508 | 36131 ft | 421 kts | 226° |
| 2026-05-07 09:49 | 39.57289 | 20.22415 | 36128 ft | 420 kts | 226° |
| 2026-05-07 09:49 | 39.52970 | 20.17334 | 36134 ft | 419 kts | 226° |
| 2026-05-07 09:50 | 39.48657 | 20.12277 | 36130 ft | 418 kts | 226° |
| 2026-05-07 09:50 | 39.44372 | 20.07208 | 36133 ft | 415 kts | 231° |
| 2026-05-07 09:51 | 39.40627 | 20.01584 | 36137 ft | 412 kts | 233° |
| 2026-05-07 09:51 | 39.36908 | 19.95968 | 36133 ft | 411 kts | 233° |
| 2026-05-07 09:52 | 39.33200 | 19.90369 | 36128 ft | 409 kts | 234° |
| 2026-05-07 09:52 | 39.30126 | 19.85724 | 36136 ft | 409 kts | 234° |
| 2026-05-07 09:53 | 39.26435 | 19.80166 | 36132 ft | 407 kts | 234° |
| 2026-05-07 09:53 | 39.22742 | 19.74633 | 36135 ft | 406 kts | 234° |
| 2026-05-07 09:54 | 39.19057 | 19.69120 | 36141 ft | 405 kts | 234° |
| 2026-05-07 09:54 | 39.15387 | 19.63637 | 36140 ft | 404 kts | 234° |
| 2026-05-07 09:55 | 39.11723 | 19.58160 | 36140 ft | 403 kts | 234° |
| 2026-05-07 09:55 | 39.08068 | 19.52705 | 36138 ft | 402 kts | 234° |
| 2026-05-07 09:56 | 39.04420 | 19.47266 | 36138 ft | 401 kts | 235° |
| 2026-05-07 09:56 | 39.00774 | 19.41846 | 36142 ft | 400 kts | 235° |
| 2026-05-07 09:57 | 38.97127 | 19.36440 | 36140 ft | 400 kts | 235° |
| 2026-05-07 09:57 | 38.93514 | 19.31087 | 36136 ft | 399 kts | 235° |
| 2026-05-07 09:58 | 38.89882 | 19.25712 | 36135 ft | 398 kts | 235° |
| 2026-05-07 09:58 | 38.86249 | 19.20356 | 36134 ft | 398 kts | 235° |
| 2026-05-07 09:59 | 38.82621 | 19.15011 | 36133 ft | 397 kts | 236° |
| 2026-05-07 09:59 | 38.78999 | 19.09673 | 36129 ft | 397 kts | 236° |
| 2026-05-07 10:00 | 38.75369 | 19.04347 | 36126 ft | 396 kts | 236° |
| 2026-05-07 10:00 | 38.71741 | 18.99034 | 36116 ft | 396 kts | 237° |
| 2026-05-07 10:01 | 38.68119 | 18.93739 | 36114 ft | 395 kts | 237° |
| 2026-05-07 10:01 | 38.64494 | 18.88450 | 36115 ft | 395 kts | 237° |
| 2026-05-07 10:02 | 38.60867 | 18.83169 | 36113 ft | 395 kts | 237° |
| 2026-05-07 10:02 | 38.57244 | 18.77904 | 36111 ft | 394 kts | 238° |
| 2026-05-07 10:03 | 38.53640 | 18.72663 | 36120 ft | 392 kts | 238° |
| 2026-05-07 10:03 | 38.50067 | 18.67478 | 36123 ft | 391 kts | 238° |
| 2026-05-07 10:04 | 38.46473 | 18.62295 | 36123 ft | 389 kts | 238° |
| 2026-05-07 10:04 | 38.42900 | 18.57138 | 36121 ft | 387 kts | 239° |
| 2026-05-07 10:05 | 38.39332 | 18.51996 | 36117 ft | 387 kts | 239° |
| 2026-05-07 10:05 | 38.35768 | 18.46857 | 36113 ft | 387 kts | 239° |
| 2026-05-07 10:06 | 38.32199 | 18.41732 | 36112 ft | 386 kts | 239° |
| 2026-05-07 10:06 | 38.28633 | 18.36618 | 36106 ft | 386 kts | 239° |
| 2026-05-07 10:07 | 38.25067 | 18.31503 | 36106 ft | 386 kts | 239° |
| 2026-05-07 10:07 | 38.21503 | 18.26401 | 36105 ft | 386 kts | 239° |
| 2026-05-07 10:08 | 38.17931 | 18.21297 | 36099 ft | 386 kts | 239° |
| 2026-05-07 10:08 | 38.14351 | 18.16192 | 36094 ft | 388 kts | 238° |
| 2026-05-07 10:09 | 38.10755 | 18.11083 | 36088 ft | 388 kts | 238° |
| 2026-05-07 10:09 | 38.07157 | 18.05970 | 36084 ft | 389 kts | 238° |
| 2026-05-07 10:10 | 38.03551 | 18.00852 | 36084 ft | 389 kts | 238° |
| 2026-05-07 10:10 | 37.99959 | 17.95766 | 36081 ft | 390 kts | 238° |
| 2026-05-07 10:11 | 37.96351 | 17.90626 | 36075 ft | 389 kts | 239° |
| 2026-05-07 10:11 | 37.92984 | 17.85298 | 36071 ft | 387 kts | 241° |
| 2026-05-07 10:12 | 37.89733 | 17.79874 | 36065 ft | 387 kts | 241° |
| 2026-05-07 10:12 | 37.86443 | 17.74469 | 36066 ft | 388 kts | 240° |
| 2026-05-07 10:13 | 37.83098 | 17.69084 | 36062 ft | 389 kts | 240° |
| 2026-05-07 10:13 | 37.79740 | 17.63712 | 36061 ft | 390 kts | 240° |
| 2026-05-07 10:14 | 37.76381 | 17.58328 | 36059 ft | 390 kts | 240° |
| 2026-05-07 10:14 | 37.73021 | 17.52938 | 36053 ft | 391 kts | 239° |
| 2026-05-07 10:15 | 37.69648 | 17.47542 | 36050 ft | 391 kts | 239° |
| 2026-05-07 10:15 | 37.66269 | 17.42149 | 36043 ft | 392 kts | 239° |
| 2026-05-07 10:16 | 37.62883 | 17.36750 | 36042 ft | 392 kts | 239° |
| 2026-05-07 10:16 | 37.59492 | 17.31347 | 36042 ft | 393 kts | 239° |
| 2026-05-07 10:17 | 37.56092 | 17.25945 | 36041 ft | 393 kts | 239° |
| 2026-05-07 10:17 | 37.52708 | 17.20577 | 36036 ft | 394 kts | 239° |
| 2026-05-07 10:18 | 37.49289 | 17.15172 | 36029 ft | 394 kts | 238° |
| 2026-05-07 10:18 | 37.45866 | 17.09771 | 36030 ft | 395 kts | 238° |
| 2026-05-07 10:19 | 37.42436 | 17.04359 | 36028 ft | 395 kts | 238° |
| 2026-05-07 10:19 | 37.39008 | 16.98942 | 36018 ft | 396 kts | 238° |
| 2026-05-07 10:20 | 37.35566 | 16.93528 | 36018 ft | 396 kts | 238° |
| 2026-05-07 10:20 | 37.32118 | 16.88112 | 36013 ft | 397 kts | 238° |
| 2026-05-07 10:21 | 37.28664 | 16.82697 | 36008 ft | 397 kts | 238° |
| 2026-05-07 10:21 | 37.25204 | 16.77277 | 36005 ft | 398 kts | 238° |
| 2026-05-07 10:22 | 37.21738 | 16.71855 | 35996 ft | 398 kts | 238° |
| 2026-05-07 10:22 | 37.18271 | 16.66435 | 35996 ft | 399 kts | 237° |
| 2026-05-07 10:23 | 37.14796 | 16.61015 | 35996 ft | 399 kts | 237° |
| 2026-05-07 10:23 | 37.11312 | 16.55595 | 35984 ft | 400 kts | 237° |
| 2026-05-07 10:24 | 37.07815 | 16.50174 | 35978 ft | 400 kts | 237° |
| 2026-05-07 10:24 | 37.04314 | 16.44751 | 35972 ft | 401 kts | 237° |
| 2026-05-07 10:25 | 37.00805 | 16.39326 | 35976 ft | 401 kts | 237° |
| 2026-05-07 10:25 | 36.99073 | 16.36651 | 35768 ft | 400 kts | 237° |
| 2026-05-07 10:25 | 36.97318 | 16.33941 | 35511 ft | 401 kts | 237° |
| 2026-05-07 10:25 | 36.95562 | 16.31228 | 35262 ft | 402 kts | 237° |
| 2026-05-07 10:26 | 36.93801 | 16.28511 | 35010 ft | 403 kts | 237° |
| 2026-05-07 10:26 | 36.92033 | 16.25785 | 34773 ft | 404 kts | 237° |
| 2026-05-07 10:26 | 36.90261 | 16.23058 | 34528 ft | 405 kts | 237° |
| 2026-05-07 10:26 | 36.88482 | 16.20321 | 34286 ft | 406 kts | 237° |
| 2026-05-07 10:27 | 36.86695 | 16.17576 | 34045 ft | 407 kts | 236° |
| 2026-05-07 10:27 | 36.84908 | 16.14834 | 33796 ft | 408 kts | 236° |
| 2026-05-07 10:27 | 36.83112 | 16.12081 | 33517 ft | 410 kts | 236° |
| 2026-05-07 10:27 | 36.81308 | 16.09319 | 33248 ft | 411 kts | 236° |
| 2026-05-07 10:28 | 36.79499 | 16.06548 | 32982 ft | 412 kts | 236° |
| 2026-05-07 10:28 | 36.77686 | 16.03773 | 32721 ft | 413 kts | 236° |
| 2026-05-07 10:28 | 36.75867 | 16.00992 | 32458 ft | 414 kts | 236° |
| 2026-05-07 10:28 | 36.74043 | 15.98205 | 32198 ft | 415 kts | 236° |
| 2026-05-07 10:29 | 36.72215 | 15.95417 | 31937 ft | 416 kts | 236° |
| 2026-05-07 10:29 | 36.70378 | 15.92619 | 31703 ft | 417 kts | 235° |
| 2026-05-07 10:29 | 36.68535 | 15.89810 | 31443 ft | 419 kts | 235° |
| 2026-05-07 10:30 | 36.64842 | 15.84184 | 30934 ft | 420 kts | 235° |
| 2026-05-07 10:30 | 36.62991 | 15.81362 | 30693 ft | 422 kts | 235° |
| 2026-05-07 10:30 | 36.61131 | 15.78528 | 30448 ft | 423 kts | 235° |
| 2026-05-07 10:30 | 36.59267 | 15.75696 | 30202 ft | 424 kts | 234° |
| 2026-05-07 10:31 | 36.57418 | 15.72894 | 29966 ft | 425 kts | 234° |
| 2026-05-07 10:31 | 36.55539 | 15.70055 | 29683 ft | 426 kts | 234° |
| 2026-05-07 10:31 | 36.53649 | 15.67204 | 29411 ft | 428 kts | 234° |
| 2026-05-07 10:31 | 36.51755 | 15.64343 | 29130 ft | 429 kts | 234° |
| 2026-05-07 10:32 | 36.50017 | 15.61351 | 28657 ft | 423 kts | 242° |
| 2026-05-07 10:32 | 36.48710 | 15.58137 | 27788 ft | 411 kts | 249° |
| 2026-05-07 10:32 | 36.47586 | 15.54930 | 27087 ft | 399 kts | 249° |
| 2026-05-07 10:32 | 36.46480 | 15.51812 | 26392 ft | 390 kts | 248° |
| 2026-05-07 10:33 | 36.45390 | 15.48759 | 25714 ft | 382 kts | 248° |
| 2026-05-07 10:33 | 36.44317 | 15.45759 | 25055 ft | 379 kts | 248° |
| 2026-05-07 10:33 | 36.43247 | 15.42773 | 24400 ft | 377 kts | 248° |
| 2026-05-07 10:33 | 36.42183 | 15.39813 | 23759 ft | 375 kts | 248° |
| 2026-05-07 10:34 | 36.41120 | 15.36868 | 23070 ft | 372 kts | 247° |
| 2026-05-07 10:34 | 36.40068 | 15.33946 | 22434 ft | 370 kts | 247° |
| 2026-05-07 10:34 | 36.39024 | 15.31037 | 21862 ft | 368 kts | 247° |
| 2026-05-07 10:34 | 36.37988 | 15.28150 | 21292 ft | 365 kts | 247° |
| 2026-05-07 10:35 | 36.36956 | 15.25280 | 20748 ft | 363 kts | 247° |
| 2026-05-07 10:35 | 36.35929 | 15.22425 | 20224 ft | 361 kts | 247° |
| 2026-05-07 10:35 | 36.34907 | 15.19592 | 19704 ft | 359 kts | 246° |
| 2026-05-07 10:35 | 36.33890 | 15.16778 | 19208 ft | 357 kts | 246° |
| 2026-05-07 10:36 | 36.32874 | 15.13976 | 18714 ft | 355 kts | 246° |
| 2026-05-07 10:36 | 36.31866 | 15.11193 | 18224 ft | 353 kts | 246° |
| 2026-05-07 10:36 | 36.30865 | 15.08425 | 17693 ft | 350 kts | 246° |
| 2026-05-07 10:36 | 36.29872 | 15.05679 | 17202 ft | 348 kts | 246° |
| 2026-05-07 10:37 | 36.28885 | 15.02950 | 16714 ft | 345 kts | 246° |
| 2026-05-07 10:37 | 36.27904 | 15.00248 | 16213 ft | 343 kts | 246° |
| 2026-05-07 10:37 | 36.26929 | 14.97568 | 15711 ft | 340 kts | 246° |
| 2026-05-07 10:37 | 36.25961 | 14.94910 | 15209 ft | 337 kts | 246° |
| 2026-05-07 10:38 | 36.24998 | 14.92272 | 14709 ft | 333 kts | 246° |
| 2026-05-07 10:38 | 36.24056 | 14.89691 | 14188 ft | 325 kts | 246° |
| 2026-05-07 10:38 | 36.23133 | 14.87161 | 13691 ft | 320 kts | 246° |
| 2026-05-07 10:38 | 36.22220 | 14.84658 | 13125 ft | 318 kts | 246° |
| 2026-05-07 10:39 | 36.21310 | 14.82166 | 12620 ft | 316 kts | 246° |
| 2026-05-07 10:39 | 36.20408 | 14.79697 | 12100 ft | 314 kts | 246° |
| 2026-05-07 10:39 | 36.19511 | 14.77241 | 11587 ft | 312 kts | 246° |
| 2026-05-07 10:39 | 36.18619 | 14.74801 | 11058 ft | 310 kts | 246° |
| 2026-05-07 10:40 | 36.17732 | 14.72380 | 10567 ft | 306 kts | 246° |
| 2026-05-07 10:40 | 36.16879 | 14.70053 | 10424 ft | 287 kts | 246° |
| 2026-05-07 10:40 | 36.16077 | 14.67866 | 10161 ft | 274 kts | 246° |
| 2026-05-07 10:40 | 36.15298 | 14.65747 | 9861 ft | 267 kts | 246° |
| 2026-05-07 10:41 | 36.14528 | 14.63658 | 9697 ft | 267 kts | 246° |
| 2026-05-07 10:41 | 36.14018 | 14.62277 | 9616 ft | 266 kts | 246° |
| 2026-05-07 10:41 | 36.13002 | 14.59515 | 9450 ft | 266 kts | 246° |
| 2026-05-07 10:41 | 36.12237 | 14.57433 | 9320 ft | 266 kts | 246° |
| 2026-05-07 10:42 | 36.11472 | 14.55356 | 9096 ft | 265 kts | 246° |
| 2026-05-07 10:42 | 36.10712 | 14.53295 | 8593 ft | 262 kts | 246° |
| 2026-05-07 10:42 | 36.09957 | 14.51245 | 8103 ft | 261 kts | 246° |
| 2026-05-07 10:42 | 36.09206 | 14.49213 | 7596 ft | 259 kts | 245° |
| 2026-05-07 10:43 | 36.08701 | 14.47849 | 7256 ft | 258 kts | 245° |
| 2026-05-07 10:43 | 36.07957 | 14.45840 | 6759 ft | 256 kts | 245° |
| 2026-05-07 10:43 | 36.07219 | 14.43845 | 6267 ft | 254 kts | 245° |
| 2026-05-07 10:43 | 36.06487 | 14.41865 | 5758 ft | 252 kts | 245° |
| 2026-05-07 10:44 | 36.05770 | 14.39927 | 5258 ft | 251 kts | 245° |
| 2026-05-07 10:44 | 36.05053 | 14.37993 | 4945 ft | 240 kts | 245° |
| 2026-05-07 10:44 | 36.04389 | 14.36204 | 4894 ft | 219 kts | 245° |
| 2026-05-07 10:44 | 36.03753 | 14.34589 | 4828 ft | 201 kts | 238° |
| 2026-05-07 10:45 | 36.02825 | 14.33269 | 4733 ft | 207 kts | 221° |
| 2026-05-07 10:45 | 36.01572 | 14.32383 | 4671 ft | 211 kts | 204° |
| 2026-05-07 10:45 | 36.00118 | 14.32052 | 4515 ft | 218 kts | 186° |
| 2026-05-07 10:45 | 35.98584 | 14.32370 | 3931 ft | 233 kts | 164° |
| 2026-05-07 10:46 | 35.97197 | 14.33504 | 3460 ft | 246 kts | 141° |
| 2026-05-07 10:46 | 35.95994 | 14.35001 | 3105 ft | 244 kts | 140° |
| 2026-05-07 10:46 | 35.94817 | 14.36480 | 2777 ft | 239 kts | 141° |
| 2026-05-07 10:46 | 35.93665 | 14.37917 | 2476 ft | 232 kts | 140° |
| 2026-05-07 10:47 | 35.92549 | 14.39306 | 2188 ft | 224 kts | 139° |
| 2026-05-07 10:47 | 35.91459 | 14.40659 | 1844 ft | 225 kts | 139° |
| 2026-05-07 10:47 | 35.90303 | 14.42009 | 1283 ft | 228 kts | 141° |
| 2026-05-07 10:47 | 35.89273 | 14.43286 | 1202 ft | 194 kts | 136° |
| 2026-05-07 10:48 | 35.88422 | 14.44406 | 1037 ft | 166 kts | 139° |
| 2026-05-07 10:48 | 35.87646 | 14.45386 | 848 ft | 154 kts | 137° |
| 2026-05-07 10:48 | 35.86927 | 14.46285 | 650 ft | 140 kts | 138° |
| 2026-05-07 10:48 | 35.86275 | 14.47107 | 452 ft | 132 kts | 138° |
| 2026-05-07 10:49 | 35.85636 | 14.47909 | 278 ft | 126 kts | 138° |
| 2026-05-07 10:49 | 35.85153 | 14.48489 | 261 ft | 47 kts | 133° |
| 2026-05-07 10:49 | 35.85013 | 14.48816 | 257 ft | 43 kts | 106° |
| 2026-05-07 10:49 | 35.84922 | 14.49081 | 255 ft | 26 kts | 123° |
| 2026-05-07 10:50 | 35.84981 | 14.49232 | 255 ft | 20 kts | 44° |
| 2026-05-07 10:50 | 35.84984 | 14.49278 | 255 ft | 0 kts | 131° |